sensor_id;sensor_type;location;lat;lon;timestamp;P1;durP1;ratioP1;P2;durP2;ratioP2
63902;SDS011;50072;50.678;13.938;2023-08-12T00:00:34;5.82;;;3.80;;
63902;SDS011;50072;50.678;13.938;2023-08-12T00:03:22;7.97;;;3.75;;
63902;SDS011;50072;50.678;13.938;2023-08-12T00:05:49;6.43;;;3.70;;
63902;SDS011;50072;50.678;13.938;2023-08-12T00:08:15;8.75;;;3.78;;
63902;SDS011;50072;50.678;13.938;2023-08-12T00:10:42;8.23;;;4.28;;
63902;SDS011;50072;50.678;13.938;2023-08-12T00:13:09;10.52;;;4.75;;
63902;SDS011;50072;50.678;13.938;2023-08-12T00:15:41;9.95;;;4.57;;
63902;SDS011;50072;50.678;13.938;2023-08-12T00:18:07;8.02;;;4.60;;
63902;SDS011;50072;50.678;13.938;2023-08-12T00:20:32;6.43;;;4.18;;
63902;SDS011;50072;50.678;13.938;2023-08-12T00:23:12;9.32;;;4.47;;
63902;SDS011;50072;50.678;13.938;2023-08-12T00:25:37;10.18;;;4.03;;
63902;SDS011;50072;50.678;13.938;2023-08-12T00:28:20;8.00;;;4.03;;
63902;SDS011;50072;50.678;13.938;2023-08-12T00:33:21;7.20;;;4.00;;
63902;SDS011;50072;50.678;13.938;2023-08-12T00:35:49;8.05;;;3.83;;
63902;SDS011;50072;50.678;13.938;2023-08-12T00:38:21;7.88;;;4.20;;
63902;SDS011;50072;50.678;13.938;2023-08-12T00:40:49;6.93;;;3.60;;
63902;SDS011;50072;50.678;13.938;2023-08-12T00:43:21;7.55;;;4.28;;
63902;SDS011;50072;50.678;13.938;2023-08-12T00:45:47;8.07;;;4.30;;
63902;SDS011;50072;50.678;13.938;2023-08-12T00:48:13;7.95;;;4.00;;
63902;SDS011;50072;50.678;13.938;2023-08-12T00:50:40;6.97;;;4.15;;
63902;SDS011;50072;50.678;13.938;2023-08-12T00:53:07;6.68;;;4.15;;
63902;SDS011;50072;50.678;13.938;2023-08-12T00:55:35;7.28;;;4.00;;
63902;SDS011;50072;50.678;13.938;2023-08-12T00:58:02;7.32;;;3.97;;
63902;SDS011;50072;50.678;13.938;2023-08-12T01:00:29;6.88;;;4.18;;
63902;SDS011;50072;50.678;13.938;2023-08-12T01:02:57;8.75;;;3.95;;
63902;SDS011;50072;50.678;13.938;2023-08-12T01:05:23;6.88;;;4.10;;
63902;SDS011;50072;50.678;13.938;2023-08-12T01:07:49;7.68;;;4.45;;
63902;SDS011;50072;50.678;13.938;2023-08-12T01:10:15;7.32;;;3.80;;
63902;SDS011;50072;50.678;13.938;2023-08-12T01:12:47;7.55;;;4.55;;
63902;SDS011;50072;50.678;13.938;2023-08-12T01:15:21;9.45;;;4.97;;
63902;SDS011;50072;50.678;13.938;2023-08-12T01:17:49;7.68;;;4.22;;
63902;SDS011;50072;50.678;13.938;2023-08-12T01:20:19;6.38;;;4.00;;
63902;SDS011;50072;50.678;13.938;2023-08-12T01:22:58;9.98;;;4.10;;
63902;SDS011;50072;50.678;13.938;2023-08-12T01:25:53;8.35;;;4.18;;
63902;SDS011;50072;50.678;13.938;2023-08-12T01:28:19;6.65;;;4.13;;
63902;SDS011;50072;50.678;13.938;2023-08-12T01:31:07;6.50;;;4.43;;
63902;SDS011;50072;50.678;13.938;2023-08-12T01:33:49;9.07;;;4.40;;
63902;SDS011;50072;50.678;13.938;2023-08-12T01:36:21;8.77;;;4.22;;
63902;SDS011;50072;50.678;13.938;2023-08-12T01:38:52;6.85;;;4.65;;
63902;SDS011;50072;50.678;13.938;2023-08-12T01:41:20;9.50;;;4.57;;
63902;SDS011;50072;50.678;13.938;2023-08-12T01:43:48;8.07;;;4.35;;
63902;SDS011;50072;50.678;13.938;2023-08-12T01:46:14;7.68;;;4.35;;
63902;SDS011;50072;50.678;13.938;2023-08-12T01:48:40;7.85;;;4.55;;
63902;SDS011;50072;50.678;13.938;2023-08-12T01:51:07;6.38;;;4.28;;
63902;SDS011;50072;50.678;13.938;2023-08-12T01:53:34;7.50;;;4.75;;
63902;SDS011;50072;50.678;13.938;2023-08-12T01:56:01;9.38;;;5.32;;
63902;SDS011;50072;50.678;13.938;2023-08-12T01:58:27;6.75;;;4.47;;
63902;SDS011;50072;50.678;13.938;2023-08-12T02:00:53;10.77;;;4.88;;
63902;SDS011;50072;50.678;13.938;2023-08-12T02:03:19;7.90;;;4.35;;
63902;SDS011;50072;50.678;13.938;2023-08-12T02:05:45;8.93;;;4.43;;
63902;SDS011;50072;50.678;13.938;2023-08-12T02:08:12;8.70;;;4.43;;
63902;SDS011;50072;50.678;13.938;2023-08-12T02:10:38;7.40;;;4.50;;
63902;SDS011;50072;50.678;13.938;2023-08-12T02:13:04;9.43;;;5.03;;
63902;SDS011;50072;50.678;13.938;2023-08-12T02:15:30;8.65;;;4.85;;
63902;SDS011;50072;50.678;13.938;2023-08-12T02:17:57;9.13;;;5.05;;
63902;SDS011;50072;50.678;13.938;2023-08-12T02:20:25;8.55;;;4.72;;
63902;SDS011;50072;50.678;13.938;2023-08-12T02:22:51;8.93;;;5.03;;
63902;SDS011;50072;50.678;13.938;2023-08-12T02:25:16;9.07;;;4.45;;
63902;SDS011;50072;50.678;13.938;2023-08-12T02:27:42;10.75;;;4.95;;
63902;SDS011;50072;50.678;13.938;2023-08-12T02:30:09;7.50;;;4.75;;
63902;SDS011;50072;50.678;13.938;2023-08-12T02:32:42;7.38;;;4.70;;
63902;SDS011;50072;50.678;13.938;2023-08-12T02:35:09;10.45;;;5.18;;
63902;SDS011;50072;50.678;13.938;2023-08-12T02:37:38;9.48;;;4.90;;
63902;SDS011;50072;50.678;13.938;2023-08-12T02:40:04;10.68;;;4.95;;
63902;SDS011;50072;50.678;13.938;2023-08-12T02:42:30;8.90;;;4.60;;
63902;SDS011;50072;50.678;13.938;2023-08-12T02:44:56;7.88;;;4.88;;
63902;SDS011;50072;50.678;13.938;2023-08-12T02:47:23;14.38;;;5.15;;
63902;SDS011;50072;50.678;13.938;2023-08-12T02:49:49;8.75;;;4.40;;
63902;SDS011;50072;50.678;13.938;2023-08-12T02:52:15;9.32;;;4.97;;
63902;SDS011;50072;50.678;13.938;2023-08-12T02:54:42;10.13;;;4.90;;
63902;SDS011;50072;50.678;13.938;2023-08-12T02:57:08;7.18;;;4.93;;
63902;SDS011;50072;50.678;13.938;2023-08-12T02:59:34;6.72;;;4.55;;
63902;SDS011;50072;50.678;13.938;2023-08-12T03:02:01;8.77;;;4.82;;
63902;SDS011;50072;50.678;13.938;2023-08-12T03:04:29;7.68;;;4.60;;
63902;SDS011;50072;50.678;13.938;2023-08-12T03:06:55;10.98;;;5.25;;
63902;SDS011;50072;50.678;13.938;2023-08-12T03:09:22;8.93;;;5.53;;
63902;SDS011;50072;50.678;13.938;2023-08-12T03:11:48;14.55;;;5.65;;
63902;SDS011;50072;50.678;13.938;2023-08-12T03:14:13;8.02;;;4.90;;
63902;SDS011;50072;50.678;13.938;2023-08-12T03:16:39;8.55;;;4.30;;
63902;SDS011;50072;50.678;13.938;2023-08-12T03:19:06;8.20;;;4.97;;
63902;SDS011;50072;50.678;13.938;2023-08-12T03:21:50;6.53;;;4.65;;
63902;SDS011;50072;50.678;13.938;2023-08-12T03:26:51;11.35;;;4.68;;
63902;SDS011;50072;50.678;13.938;2023-08-12T03:31:51;6.85;;;4.53;;
63902;SDS011;50072;50.678;13.938;2023-08-12T03:34:22;13.18;;;5.35;;
63902;SDS011;50072;50.678;13.938;2023-08-12T03:36:50;7.60;;;5.03;;
63902;SDS011;50072;50.678;13.938;2023-08-12T03:39:19;7.68;;;4.97;;
63902;SDS011;50072;50.678;13.938;2023-08-12T03:44:16;7.93;;;5.50;;
63902;SDS011;50072;50.678;13.938;2023-08-12T03:46:42;7.63;;;5.13;;
63902;SDS011;50072;50.678;13.938;2023-08-12T03:49:07;8.77;;;5.47;;
63902;SDS011;50072;50.678;13.938;2023-08-12T03:51:39;9.57;;;5.03;;
63902;SDS011;50072;50.678;13.938;2023-08-12T03:54:06;8.57;;;4.63;;
63902;SDS011;50072;50.678;13.938;2023-08-12T03:56:32;6.22;;;4.43;;
63902;SDS011;50072;50.678;13.938;2023-08-12T03:58:58;9.63;;;5.40;;
63902;SDS011;50072;50.678;13.938;2023-08-12T04:01:24;10.80;;;5.28;;
63902;SDS011;50072;50.678;13.938;2023-08-12T04:03:49;6.45;;;4.30;;
63902;SDS011;50072;50.678;13.938;2023-08-12T04:06:16;8.10;;;4.68;;
63902;SDS011;50072;50.678;13.938;2023-08-12T04:08:42;13.60;;;5.20;;
63902;SDS011;50072;50.678;13.938;2023-08-12T04:11:08;12.68;;;5.20;;
63902;SDS011;50072;50.678;13.938;2023-08-12T04:13:33;9.82;;;5.25;;
63902;SDS011;50072;50.678;13.938;2023-08-12T04:15:59;15.20;;;6.63;;
63902;SDS011;50072;50.678;13.938;2023-08-12T04:18:25;9.05;;;5.50;;
63902;SDS011;50072;50.678;13.938;2023-08-12T04:20:52;9.68;;;5.93;;
63902;SDS011;50072;50.678;13.938;2023-08-12T04:23:19;10.75;;;6.00;;
63902;SDS011;50072;50.678;13.938;2023-08-12T04:25:49;14.02;;;6.07;;
63902;SDS011;50072;50.678;13.938;2023-08-12T04:28:16;11.07;;;6.18;;
63902;SDS011;50072;50.678;13.938;2023-08-12T04:30:43;10.18;;;6.80;;
63902;SDS011;50072;50.678;13.938;2023-08-12T04:33:09;9.50;;;6.05;;
63902;SDS011;50072;50.678;13.938;2023-08-12T04:35:35;11.13;;;5.65;;
63902;SDS011;50072;50.678;13.938;2023-08-12T04:38:02;9.82;;;5.90;;
63902;SDS011;50072;50.678;13.938;2023-08-12T04:40:28;9.20;;;5.78;;
63902;SDS011;50072;50.678;13.938;2023-08-12T04:42:54;9.15;;;5.90;;
63902;SDS011;50072;50.678;13.938;2023-08-12T04:45:20;9.88;;;6.10;;
63902;SDS011;50072;50.678;13.938;2023-08-12T04:47:47;9.00;;;5.43;;
63902;SDS011;50072;50.678;13.938;2023-08-12T04:50:12;9.70;;;5.47;;
63902;SDS011;50072;50.678;13.938;2023-08-12T04:52:44;8.40;;;5.15;;
63902;SDS011;50072;50.678;13.938;2023-08-12T04:55:12;12.05;;;5.88;;
63902;SDS011;50072;50.678;13.938;2023-08-12T04:57:39;10.10;;;5.93;;
63902;SDS011;50072;50.678;13.938;2023-08-12T05:00:07;12.02;;;6.65;;
63902;SDS011;50072;50.678;13.938;2023-08-12T05:02:36;11.55;;;6.53;;
63902;SDS011;50072;50.678;13.938;2023-08-12T05:07:31;9.40;;;6.28;;
63902;SDS011;50072;50.678;13.938;2023-08-12T05:09:59;13.10;;;6.88;;
63902;SDS011;50072;50.678;13.938;2023-08-12T05:12:27;12.02;;;7.70;;
63902;SDS011;50072;50.678;13.938;2023-08-12T05:14:53;11.50;;;7.15;;
63902;SDS011;50072;50.678;13.938;2023-08-12T05:17:19;8.73;;;7.03;;
63902;SDS011;50072;50.678;13.938;2023-08-12T05:19:46;10.88;;;7.00;;
63902;SDS011;50072;50.678;13.938;2023-08-12T05:22:11;9.88;;;7.05;;
63902;SDS011;50072;50.678;13.938;2023-08-12T05:24:37;14.48;;;7.47;;
63902;SDS011;50072;50.678;13.938;2023-08-12T05:27:03;11.40;;;7.30;;
63902;SDS011;50072;50.678;13.938;2023-08-12T05:29:30;11.88;;;7.38;;
63902;SDS011;50072;50.678;13.938;2023-08-12T05:31:56;12.57;;;8.10;;
63902;SDS011;50072;50.678;13.938;2023-08-12T05:34:22;14.23;;;7.13;;
63902;SDS011;50072;50.678;13.938;2023-08-12T05:36:47;12.88;;;7.63;;
63902;SDS011;50072;50.678;13.938;2023-08-12T05:39:13;11.40;;;7.15;;
63902;SDS011;50072;50.678;13.938;2023-08-12T05:41:40;12.30;;;7.05;;
63902;SDS011;50072;50.678;13.938;2023-08-12T05:44:06;10.48;;;6.85;;
63902;SDS011;50072;50.678;13.938;2023-08-12T05:46:32;11.38;;;6.78;;
63902;SDS011;50072;50.678;13.938;2023-08-12T05:48:58;11.00;;;6.03;;
63902;SDS011;50072;50.678;13.938;2023-08-12T05:51:24;11.70;;;6.80;;
63902;SDS011;50072;50.678;13.938;2023-08-12T05:53:50;13.75;;;6.68;;
63902;SDS011;50072;50.678;13.938;2023-08-12T05:56:15;9.73;;;6.88;;
63902;SDS011;50072;50.678;13.938;2023-08-12T05:58:41;9.30;;;6.00;;
63902;SDS011;50072;50.678;13.938;2023-08-12T06:01:07;14.30;;;6.05;;
63902;SDS011;50072;50.678;13.938;2023-08-12T06:03:33;9.95;;;5.65;;
63902;SDS011;50072;50.678;13.938;2023-08-12T06:05:59;9.20;;;6.40;;
63902;SDS011;50072;50.678;13.938;2023-08-12T06:08:25;10.52;;;6.40;;
63902;SDS011;50072;50.678;13.938;2023-08-12T06:10:51;11.23;;;6.35;;
63902;SDS011;50072;50.678;13.938;2023-08-12T06:13:17;11.40;;;6.45;;
63902;SDS011;50072;50.678;13.938;2023-08-12T06:15:42;11.75;;;5.97;;
63902;SDS011;50072;50.678;13.938;2023-08-12T06:18:08;13.38;;;6.00;;
63902;SDS011;50072;50.678;13.938;2023-08-12T06:20:36;8.80;;;6.10;;
63902;SDS011;50072;50.678;13.938;2023-08-12T06:23:19;8.60;;;5.18;;
63902;SDS011;50072;50.678;13.938;2023-08-12T06:25:49;10.20;;;5.72;;
63902;SDS011;50072;50.678;13.938;2023-08-12T06:28:19;12.23;;;5.80;;
63902;SDS011;50072;50.678;13.938;2023-08-12T06:33:21;7.97;;;5.40;;
63902;SDS011;50072;50.678;13.938;2023-08-12T06:35:50;6.43;;;4.60;;
63902;SDS011;50072;50.678;13.938;2023-08-12T06:38:22;11.18;;;5.28;;
63902;SDS011;50072;50.678;13.938;2023-08-12T06:40:49;12.10;;;5.63;;
63902;SDS011;50072;50.678;13.938;2023-08-12T06:43:15;8.80;;;5.28;;
63902;SDS011;50072;50.678;13.938;2023-08-12T06:45:42;10.55;;;5.85;;
63902;SDS011;50072;50.678;13.938;2023-08-12T06:48:08;10.18;;;5.43;;
63902;SDS011;50072;50.678;13.938;2023-08-12T06:50:34;9.95;;;5.90;;
63902;SDS011;50072;50.678;13.938;2023-08-12T06:53:00;14.32;;;5.63;;
63902;SDS011;50072;50.678;13.938;2023-08-12T06:55:25;9.38;;;5.93;;
63902;SDS011;50072;50.678;13.938;2023-08-12T06:57:51;8.20;;;5.50;;
63902;SDS011;50072;50.678;13.938;2023-08-12T07:00:17;11.38;;;5.75;;
63902;SDS011;50072;50.678;13.938;2023-08-12T07:02:43;7.65;;;5.30;;
63902;SDS011;50072;50.678;13.938;2023-08-12T07:05:09;9.70;;;5.72;;
63902;SDS011;50072;50.678;13.938;2023-08-12T07:07:35;11.85;;;5.40;;
63902;SDS011;50072;50.678;13.938;2023-08-12T07:10:01;11.10;;;5.60;;
63902;SDS011;50072;50.678;13.938;2023-08-12T07:12:27;11.38;;;5.93;;
63902;SDS011;50072;50.678;13.938;2023-08-12T07:14:52;9.70;;;5.60;;
63902;SDS011;50072;50.678;13.938;2023-08-12T07:17:18;10.50;;;5.80;;
63902;SDS011;50072;50.678;13.938;2023-08-12T07:19:44;11.05;;;5.80;;
63902;SDS011;50072;50.678;13.938;2023-08-12T07:22:11;8.82;;;5.78;;
63902;SDS011;50072;50.678;13.938;2023-08-12T07:24:37;12.07;;;5.97;;
63902;SDS011;50072;50.678;13.938;2023-08-12T07:27:03;14.27;;;5.72;;
63902;SDS011;50072;50.678;13.938;2023-08-12T07:29:29;12.15;;;5.60;;
63902;SDS011;50072;50.678;13.938;2023-08-12T07:31:56;12.82;;;5.32;;
63902;SDS011;50072;50.678;13.938;2023-08-12T07:34:23;9.98;;;5.28;;
63902;SDS011;50072;50.678;13.938;2023-08-12T07:36:49;8.52;;;5.28;;
63902;SDS011;50072;50.678;13.938;2023-08-12T07:39:14;10.75;;;5.65;;
63902;SDS011;50072;50.678;13.938;2023-08-12T07:41:41;8.63;;;5.00;;
63902;SDS011;50072;50.678;13.938;2023-08-12T07:44:06;9.70;;;5.30;;
63902;SDS011;50072;50.678;13.938;2023-08-12T07:46:32;7.85;;;5.38;;
63902;SDS011;50072;50.678;13.938;2023-08-12T07:48:58;9.07;;;5.65;;
63902;SDS011;50072;50.678;13.938;2023-08-12T07:51:24;10.60;;;6.03;;
63902;SDS011;50072;50.678;13.938;2023-08-12T07:53:50;10.98;;;5.18;;
63902;SDS011;50072;50.678;13.938;2023-08-12T07:56:16;15.95;;;5.47;;
63902;SDS011;50072;50.678;13.938;2023-08-12T07:58:41;8.95;;;5.45;;
63902;SDS011;50072;50.678;13.938;2023-08-12T08:01:08;8.93;;;5.38;;
63902;SDS011;50072;50.678;13.938;2023-08-12T08:03:34;10.35;;;6.07;;
63902;SDS011;50072;50.678;13.938;2023-08-12T08:06:00;10.38;;;5.90;;
63902;SDS011;50072;50.678;13.938;2023-08-12T08:08:26;9.77;;;5.68;;
63902;SDS011;50072;50.678;13.938;2023-08-12T08:10:52;7.93;;;5.28;;
63902;SDS011;50072;50.678;13.938;2023-08-12T08:13:18;8.93;;;5.63;;
63902;SDS011;50072;50.678;13.938;2023-08-12T08:15:44;13.38;;;5.90;;
63902;SDS011;50072;50.678;13.938;2023-08-12T08:18:11;10.13;;;4.85;;
63902;SDS011;50072;50.678;13.938;2023-08-12T08:20:37;9.95;;;5.05;;
63902;SDS011;50072;50.678;13.938;2023-08-12T08:23:03;8.32;;;4.32;;
63902;SDS011;50072;50.678;13.938;2023-08-12T08:25:29;6.90;;;4.97;;
63902;SDS011;50072;50.678;13.938;2023-08-12T08:27:54;13.80;;;5.13;;
63902;SDS011;50072;50.678;13.938;2023-08-12T08:30:20;9.15;;;5.18;;
63902;SDS011;50072;50.678;13.938;2023-08-12T08:32:48;9.15;;;4.70;;
63902;SDS011;50072;50.678;13.938;2023-08-12T08:35:15;8.60;;;4.40;;
63902;SDS011;50072;50.678;13.938;2023-08-12T08:37:40;12.02;;;4.68;;
63902;SDS011;50072;50.678;13.938;2023-08-12T08:40:06;7.20;;;4.57;;
63902;SDS011;50072;50.678;13.938;2023-08-12T08:42:34;5.97;;;4.30;;
63902;SDS011;50072;50.678;13.938;2023-08-12T08:45:00;8.52;;;4.28;;
63902;SDS011;50072;50.678;13.938;2023-08-12T08:47:27;6.10;;;4.55;;
63902;SDS011;50072;50.678;13.938;2023-08-12T08:49:54;8.90;;;4.72;;
63902;SDS011;50072;50.678;13.938;2023-08-12T08:52:21;10.80;;;5.07;;
63902;SDS011;50072;50.678;13.938;2023-08-12T08:54:49;8.27;;;4.38;;
63902;SDS011;50072;50.678;13.938;2023-08-12T08:57:15;9.15;;;4.50;;
63902;SDS011;50072;50.678;13.938;2023-08-12T08:59:41;7.70;;;4.22;;
63902;SDS011;50072;50.678;13.938;2023-08-12T09:02:09;7.20;;;4.60;;
63902;SDS011;50072;50.678;13.938;2023-08-12T09:04:42;8.70;;;4.43;;
63902;SDS011;50072;50.678;13.938;2023-08-12T09:07:09;9.68;;;4.40;;
63902;SDS011;50072;50.678;13.938;2023-08-12T09:09:36;6.93;;;3.78;;
63902;SDS011;50072;50.678;13.938;2023-08-12T09:12:07;10.47;;;4.93;;
63902;SDS011;50072;50.678;13.938;2023-08-12T09:14:35;5.68;;;3.80;;
63902;SDS011;50072;50.678;13.938;2023-08-12T09:17:01;7.82;;;4.22;;
63902;SDS011;50072;50.678;13.938;2023-08-12T09:19:28;6.75;;;4.43;;
63902;SDS011;50072;50.678;13.938;2023-08-12T09:21:54;7.38;;;4.15;;
63902;SDS011;50072;50.678;13.938;2023-08-12T09:24:25;5.65;;;4.18;;
63902;SDS011;50072;50.678;13.938;2023-08-12T09:26:52;8.25;;;4.60;;
63902;SDS011;50072;50.678;13.938;2023-08-12T09:29:33;7.95;;;4.80;;
63902;SDS011;50072;50.678;13.938;2023-08-12T09:32:12;6.90;;;4.13;;
63902;SDS011;50072;50.678;13.938;2023-08-12T09:37:20;9.10;;;4.20;;
63902;SDS011;50072;50.678;13.938;2023-08-12T09:39:49;9.38;;;4.05;;
63902;SDS011;50072;50.678;13.938;2023-08-12T09:42:18;6.63;;;4.18;;
63902;SDS011;50072;50.678;13.938;2023-08-12T09:44:46;5.85;;;3.78;;
63902;SDS011;50072;50.678;13.938;2023-08-12T09:47:19;6.30;;;4.45;;
63902;SDS011;50072;50.678;13.938;2023-08-12T09:49:45;8.27;;;4.30;;
63902;SDS011;50072;50.678;13.938;2023-08-12T09:52:11;7.13;;;3.90;;
63902;SDS011;50072;50.678;13.938;2023-08-12T09:54:39;8.02;;;4.18;;
63902;SDS011;50072;50.678;13.938;2023-08-12T09:57:08;5.70;;;3.75;;
63902;SDS011;50072;50.678;13.938;2023-08-12T09:59:36;7.07;;;3.95;;
63902;SDS011;50072;50.678;13.938;2023-08-12T10:02:09;7.75;;;4.00;;
63902;SDS011;50072;50.678;13.938;2023-08-12T10:04:44;6.63;;;4.17;;
63902;SDS011;50072;50.678;13.938;2023-08-12T10:07:11;7.97;;;3.90;;
63902;SDS011;50072;50.678;13.938;2023-08-12T10:09:46;7.13;;;3.83;;
63902;SDS011;50072;50.678;13.938;2023-08-12T10:12:12;5.70;;;3.78;;
63902;SDS011;50072;50.678;13.938;2023-08-12T10:14:38;7.50;;;3.78;;
63902;SDS011;50072;50.678;13.938;2023-08-12T10:17:05;7.07;;;3.67;;
63902;SDS011;50072;50.678;13.938;2023-08-12T10:19:31;5.07;;;3.30;;
63902;SDS011;50072;50.678;13.938;2023-08-12T10:21:58;6.82;;;3.70;;
63902;SDS011;50072;50.678;13.938;2023-08-12T10:24:26;6.25;;;3.75;;
63902;SDS011;50072;50.678;13.938;2023-08-12T10:26:52;5.82;;;3.15;;
63902;SDS011;50072;50.678;13.938;2023-08-12T10:29:20;6.80;;;3.67;;
63902;SDS011;50072;50.678;13.938;2023-08-12T10:31:49;5.50;;;3.53;;
63902;SDS011;50072;50.678;13.938;2023-08-12T10:34:19;5.10;;;3.28;;
63902;SDS011;50072;50.678;13.938;2023-08-12T10:36:47;6.15;;;3.20;;
63902;SDS011;50072;50.678;13.938;2023-08-12T10:39:14;5.13;;;3.20;;
63902;SDS011;50072;50.678;13.938;2023-08-12T10:41:49;4.97;;;3.42;;
63902;SDS011;50072;50.678;13.938;2023-08-12T10:44:19;6.85;;;3.80;;
63902;SDS011;50072;50.678;13.938;2023-08-12T10:46:52;5.47;;;3.47;;
63902;SDS011;50072;50.678;13.938;2023-08-12T10:49:20;6.82;;;3.63;;
63902;SDS011;50072;50.678;13.938;2023-08-12T10:51:55;4.78;;;3.35;;
63902;SDS011;50072;50.678;13.938;2023-08-12T10:59:47;5.32;;;3.50;;
63902;SDS011;50072;50.678;13.938;2023-08-12T11:02:20;7.32;;;3.78;;
63902;SDS011;50072;50.678;13.938;2023-08-12T11:07:47;7.63;;;3.90;;
63902;SDS011;50072;50.678;13.938;2023-08-12T11:10:18;8.50;;;3.80;;
63902;SDS011;50072;50.678;13.938;2023-08-12T11:15:37;7.20;;;3.95;;
63902;SDS011;50072;50.678;13.938;2023-08-12T11:18:08;7.45;;;4.07;;
63902;SDS011;50072;50.678;13.938;2023-08-12T11:20:36;5.10;;;3.95;;
63902;SDS011;50072;50.678;13.938;2023-08-12T11:23:09;6.05;;;3.88;;
63902;SDS011;50072;50.678;13.938;2023-08-12T11:25:37;6.18;;;4.00;;
63902;SDS011;50072;50.678;13.938;2023-08-12T11:28:04;7.50;;;4.53;;
63902;SDS011;50072;50.678;13.938;2023-08-12T11:30:31;8.80;;;4.10;;
63902;SDS011;50072;50.678;13.938;2023-08-12T11:32:57;5.82;;;4.25;;
63902;SDS011;50072;50.678;13.938;2023-08-12T11:35:24;7.32;;;4.13;;
63902;SDS011;50072;50.678;13.938;2023-08-12T11:37:52;8.23;;;4.15;;
63902;SDS011;50072;50.678;13.938;2023-08-12T11:40:21;6.43;;;3.75;;
63902;SDS011;50072;50.678;13.938;2023-08-12T11:42:49;7.80;;;3.90;;
63902;SDS011;50072;50.678;13.938;2023-08-12T11:45:17;6.47;;;3.80;;
63902;SDS011;50072;50.678;13.938;2023-08-12T11:47:45;8.60;;;3.88;;
63902;SDS011;50072;50.678;13.938;2023-08-12T11:50:21;8.43;;;4.05;;
63902;SDS011;50072;50.678;13.938;2023-08-12T11:52:49;6.25;;;4.15;;
63902;SDS011;50072;50.678;13.938;2023-08-12T11:55:15;8.77;;;4.00;;
63902;SDS011;50072;50.678;13.938;2023-08-12T11:57:42;5.82;;;4.15;;
63902;SDS011;50072;50.678;13.938;2023-08-12T12:00:09;7.55;;;4.05;;
63902;SDS011;50072;50.678;13.938;2023-08-12T12:02:40;10.10;;;4.50;;
63902;SDS011;50072;50.678;13.938;2023-08-12T12:07:37;9.18;;;4.50;;
63902;SDS011;50072;50.678;13.938;2023-08-12T12:10:04;5.95;;;4.10;;
63902;SDS011;50072;50.678;13.938;2023-08-12T12:12:34;6.53;;;4.18;;
63902;SDS011;50072;50.678;13.938;2023-08-12T12:15:01;8.85;;;3.97;;
63902;SDS011;50072;50.678;13.938;2023-08-12T12:17:28;8.98;;;4.47;;
63902;SDS011;50072;50.678;13.938;2023-08-12T12:19:59;6.28;;;4.00;;
63902;SDS011;50072;50.678;13.938;2023-08-12T12:22:28;7.78;;;4.57;;
63902;SDS011;50072;50.678;13.938;2023-08-12T12:24:59;9.70;;;4.65;;
63902;SDS011;50072;50.678;13.938;2023-08-12T12:27:30;7.35;;;4.00;;
63902;SDS011;50072;50.678;13.938;2023-08-12T12:30:02;8.80;;;4.07;;
63902;SDS011;50072;50.678;13.938;2023-08-12T12:32:28;6.63;;;3.88;;
63902;SDS011;50072;50.678;13.938;2023-08-12T12:34:55;8.05;;;3.63;;
63902;SDS011;50072;50.678;13.938;2023-08-12T12:37:21;11.00;;;3.75;;
63902;SDS011;50072;50.678;13.938;2023-08-12T12:39:48;6.15;;;3.60;;
63902;SDS011;50072;50.678;13.938;2023-08-12T12:42:14;7.65;;;3.38;;
63902;SDS011;50072;50.678;13.938;2023-08-12T12:44:39;5.25;;;3.20;;
63902;SDS011;50072;50.678;13.938;2023-08-12T12:47:05;6.80;;;3.40;;
63902;SDS011;50072;50.678;13.938;2023-08-12T12:49:32;7.30;;;3.22;;
63902;SDS011;50072;50.678;13.938;2023-08-12T12:51:58;4.40;;;3.15;;
63902;SDS011;50072;50.678;13.938;2023-08-12T12:54:24;9.40;;;3.25;;
63902;SDS011;50072;50.678;13.938;2023-08-12T12:56:49;7.78;;;3.20;;
63902;SDS011;50072;50.678;13.938;2023-08-12T12:59:15;5.97;;;3.20;;
63902;SDS011;50072;50.678;13.938;2023-08-12T13:01:41;4.80;;;2.92;;
63902;SDS011;50072;50.678;13.938;2023-08-12T13:04:07;4.80;;;2.58;;
63902;SDS011;50072;50.678;13.938;2023-08-12T13:06:34;5.50;;;2.80;;
63902;SDS011;50072;50.678;13.938;2023-08-12T13:09:00;4.57;;;2.60;;
63902;SDS011;50072;50.678;13.938;2023-08-12T13:11:28;5.47;;;2.40;;
63902;SDS011;50072;50.678;13.938;2023-08-12T13:13:54;5.25;;;2.20;;
63902;SDS011;50072;50.678;13.938;2023-08-12T13:16:20;4.20;;;2.22;;
63902;SDS011;50072;50.678;13.938;2023-08-12T13:18:46;5.05;;;2.22;;
63902;SDS011;50072;50.678;13.938;2023-08-12T13:21:12;3.97;;;2.30;;
63902;SDS011;50072;50.678;13.938;2023-08-12T13:23:38;4.32;;;2.42;;
63902;SDS011;50072;50.678;13.938;2023-08-12T13:26:03;5.47;;;2.38;;
63902;SDS011;50072;50.678;13.938;2023-08-12T13:28:29;5.18;;;2.50;;
63902;SDS011;50072;50.678;13.938;2023-08-12T13:30:55;7.35;;;2.60;;
63902;SDS011;50072;50.678;13.938;2023-08-12T13:33:21;5.13;;;2.60;;
63902;SDS011;50072;50.678;13.938;2023-08-12T13:35:47;4.40;;;2.70;;
63902;SDS011;50072;50.678;13.938;2023-08-12T13:38:13;4.45;;;2.38;;
63902;SDS011;50072;50.678;13.938;2023-08-12T13:40:39;5.05;;;2.65;;
63902;SDS011;50072;50.678;13.938;2023-08-12T13:43:05;7.13;;;2.72;;
63902;SDS011;50072;50.678;13.938;2023-08-12T13:45:30;6.85;;;3.42;;
63902;SDS011;50072;50.678;13.938;2023-08-12T13:47:56;7.38;;;2.72;;
63902;SDS011;50072;50.678;13.938;2023-08-12T13:50:22;5.55;;;2.95;;
63902;SDS011;50072;50.678;13.938;2023-08-12T13:52:48;7.20;;;2.95;;
63902;SDS011;50072;50.678;13.938;2023-08-12T13:55:15;6.10;;;2.80;;
63902;SDS011;50072;50.678;13.938;2023-08-12T13:57:42;5.53;;;3.15;;
63902;SDS011;50072;50.678;13.938;2023-08-12T14:00:07;5.13;;;2.97;;
63902;SDS011;50072;50.678;13.938;2023-08-12T14:02:38;3.72;;;2.53;;
63902;SDS011;50072;50.678;13.938;2023-08-12T14:05:05;3.70;;;2.75;;
63902;SDS011;50072;50.678;13.938;2023-08-12T14:07:32;4.82;;;2.45;;
63902;SDS011;50072;50.678;13.938;2023-08-12T14:09:58;4.75;;;2.45;;
63902;SDS011;50072;50.678;13.938;2023-08-12T14:12:24;3.95;;;2.45;;
63902;SDS011;50072;50.678;13.938;2023-08-12T14:14:50;3.50;;;2.70;;
63902;SDS011;50072;50.678;13.938;2023-08-12T14:17:16;3.35;;;2.35;;
63902;SDS011;50072;50.678;13.938;2023-08-12T14:19:44;3.40;;;2.05;;
63902;SDS011;50072;50.678;13.938;2023-08-12T14:22:13;3.63;;;2.17;;
63902;SDS011;50072;50.678;13.938;2023-08-12T14:24:39;4.20;;;2.03;;
63902;SDS011;50072;50.678;13.938;2023-08-12T14:27:05;3.53;;;2.30;;
63902;SDS011;50072;50.678;13.938;2023-08-12T14:29:30;3.65;;;2.30;;
63902;SDS011;50072;50.678;13.938;2023-08-12T14:31:57;5.20;;;2.13;;
63902;SDS011;50072;50.678;13.938;2023-08-12T14:34:23;3.50;;;2.08;;
63902;SDS011;50072;50.678;13.938;2023-08-12T14:36:49;2.72;;;2.00;;
63902;SDS011;50072;50.678;13.938;2023-08-12T14:39:14;2.95;;;2.20;;
63902;SDS011;50072;50.678;13.938;2023-08-12T14:41:40;3.00;;;2.20;;
63902;SDS011;50072;50.678;13.938;2023-08-12T14:44:06;2.75;;;1.83;;
63902;SDS011;50072;50.678;13.938;2023-08-12T14:46:32;4.35;;;2.03;;
63902;SDS011;50072;50.678;13.938;2023-08-12T14:48:57;5.47;;;2.00;;
63902;SDS011;50072;50.678;13.938;2023-08-12T14:51:23;4.85;;;2.05;;
63902;SDS011;50072;50.678;13.938;2023-08-12T14:53:49;4.20;;;2.00;;
63902;SDS011;50072;50.678;13.938;2023-08-12T14:56:17;2.80;;;1.80;;
63902;SDS011;50072;50.678;13.938;2023-08-12T14:58:42;3.85;;;1.73;;
63902;SDS011;50072;50.678;13.938;2023-08-12T15:01:09;3.30;;;1.80;;
63902;SDS011;50072;50.678;13.938;2023-08-12T15:03:37;7.65;;;2.47;;